sensor_id;sensor_type;location;lat;lon;timestamp;P1;durP1;ratioP1;P2;durP2;ratioP2
76290;SDS011;65100;46.884;17.410;2023-03-18T00:01:12;19.77;;;8.50;;
76290;SDS011;65100;46.884;17.410;2023-03-18T00:03:38;17.40;;;8.67;;
76290;SDS011;65100;46.884;17.410;2023-03-18T00:08:33;16.75;;;8.13;;
76290;SDS011;65100;46.884;17.410;2023-03-18T00:10:59;21.85;;;8.00;;
76290;SDS011;65100;46.884;17.410;2023-03-18T00:13:26;17.00;;;7.53;;
76290;SDS011;65100;46.884;17.410;2023-03-18T00:15:52;17.42;;;7.72;;
76290;SDS011;65100;46.884;17.410;2023-03-18T00:18:18;18.02;;;8.48;;
76290;SDS011;65100;46.884;17.410;2023-03-18T00:20:44;17.88;;;7.93;;
76290;SDS011;65100;46.884;17.410;2023-03-18T00:23:10;14.73;;;6.47;;
76290;SDS011;65100;46.884;17.410;2023-03-18T00:25:36;15.27;;;7.10;;
76290;SDS011;65100;46.884;17.410;2023-03-18T00:28:03;15.02;;;7.50;;
76290;SDS011;65100;46.884;17.410;2023-03-18T00:30:30;13.93;;;7.43;;
76290;SDS011;65100;46.884;17.410;2023-03-18T00:32:56;16.35;;;7.60;;
76290;SDS011;65100;46.884;17.410;2023-03-18T00:35:22;16.98;;;7.55;;
76290;SDS011;65100;46.884;17.410;2023-03-18T00:37:48;16.53;;;7.50;;
76290;SDS011;65100;46.884;17.410;2023-03-18T00:40:14;16.95;;;7.30;;
76290;SDS011;65100;46.884;17.410;2023-03-18T00:42:44;14.63;;;6.87;;
76290;SDS011;65100;46.884;17.410;2023-03-18T00:45:21;18.38;;;7.82;;
76290;SDS011;65100;46.884;17.410;2023-03-18T00:47:47;13.88;;;6.95;;
76290;SDS011;65100;46.884;17.410;2023-03-18T00:53:20;14.45;;;7.13;;
76290;SDS011;65100;46.884;17.410;2023-03-18T00:55:47;14.10;;;6.30;;
76290;SDS011;65100;46.884;17.410;2023-03-18T00:58:13;13.60;;;6.20;;
76290;SDS011;65100;46.884;17.410;2023-03-18T01:00:38;14.63;;;7.03;;
76290;SDS011;65100;46.884;17.410;2023-03-18T01:03:05;14.52;;;6.68;;
76290;SDS011;65100;46.884;17.410;2023-03-18T01:05:32;15.52;;;7.07;;
76290;SDS011;65100;46.884;17.410;2023-03-18T01:07:58;15.53;;;6.67;;
76290;SDS011;65100;46.884;17.410;2023-03-18T01:10:24;14.13;;;6.80;;
76290;SDS011;65100;46.884;17.410;2023-03-18T01:12:51;16.27;;;7.95;;
76290;SDS011;65100;46.884;17.410;2023-03-18T01:15:18;15.45;;;7.25;;
76290;SDS011;65100;46.884;17.410;2023-03-18T01:17:45;16.30;;;7.70;;
76290;SDS011;65100;46.884;17.410;2023-03-18T01:20:13;13.95;;;6.63;;
76290;SDS011;65100;46.884;17.410;2023-03-18T01:22:41;15.95;;;6.70;;
76290;SDS011;65100;46.884;17.410;2023-03-18T01:25:07;14.93;;;6.93;;
76290;SDS011;65100;46.884;17.410;2023-03-18T01:27:34;15.60;;;7.15;;
76290;SDS011;65100;46.884;17.410;2023-03-18T01:30:00;14.77;;;6.80;;
76290;SDS011;65100;46.884;17.410;2023-03-18T01:32:26;15.20;;;7.30;;
76290;SDS011;65100;46.884;17.410;2023-03-18T01:34:52;14.60;;;7.20;;
76290;SDS011;65100;46.884;17.410;2023-03-18T01:37:18;15.37;;;7.00;;
76290;SDS011;65100;46.884;17.410;2023-03-18T01:39:44;16.10;;;6.90;;
76290;SDS011;65100;46.884;17.410;2023-03-18T01:42:10;10.37;;;4.63;;
76290;SDS011;65100;46.884;17.410;2023-03-18T01:44:36;15.02;;;6.60;;
76290;SDS011;65100;46.884;17.410;2023-03-18T01:47:01;13.37;;;7.40;;
76290;SDS011;65100;46.884;17.410;2023-03-18T01:49:29;15.48;;;6.40;;
76290;SDS011;65100;46.884;17.410;2023-03-18T01:52:00;14.60;;;6.30;;
76290;SDS011;65100;46.884;17.410;2023-03-18T01:54:34;14.52;;;6.93;;
76290;SDS011;65100;46.884;17.410;2023-03-18T01:57:02;14.48;;;6.65;;
76290;SDS011;65100;46.884;17.410;2023-03-18T01:59:28;14.10;;;6.27;;
76290;SDS011;65100;46.884;17.410;2023-03-18T02:02:10;12.30;;;6.33;;
76290;SDS011;65100;46.884;17.410;2023-03-18T02:04:46;14.80;;;6.90;;
76290;SDS011;65100;46.884;17.410;2023-03-18T02:07:36;13.50;;;6.32;;
76290;SDS011;65100;46.884;17.410;2023-03-18T02:10:08;14.95;;;7.00;;
76290;SDS011;65100;46.884;17.410;2023-03-18T02:12:37;14.95;;;6.82;;
76290;SDS011;65100;46.884;17.410;2023-03-18T02:15:06;15.67;;;6.83;;
76290;SDS011;65100;46.884;17.410;2023-03-18T02:17:39;14.50;;;6.40;;
76290;SDS011;65100;46.884;17.410;2023-03-18T02:22:53;14.45;;;6.65;;
76290;SDS011;65100;46.884;17.410;2023-03-18T02:25:41;15.98;;;7.55;;
76290;SDS011;65100;46.884;17.410;2023-03-18T02:28:19;15.57;;;7.10;;
76290;SDS011;65100;46.884;17.410;2023-03-18T02:30:50;16.05;;;7.03;;
76290;SDS011;65100;46.884;17.410;2023-03-18T02:33:18;14.57;;;6.65;;
76290;SDS011;65100;46.884;17.410;2023-03-18T02:35:48;14.43;;;6.15;;
76290;SDS011;65100;46.884;17.410;2023-03-18T02:38:16;13.77;;;6.80;;
76290;SDS011;65100;46.884;17.410;2023-03-18T02:40:42;15.90;;;6.90;;
76290;SDS011;65100;46.884;17.410;2023-03-18T02:46:04;15.48;;;6.47;;
76290;SDS011;65100;46.884;17.410;2023-03-18T02:48:55;15.73;;;6.25;;
76290;SDS011;65100;46.884;17.410;2023-03-18T02:51:23;15.40;;;6.90;;
76290;SDS011;65100;46.884;17.410;2023-03-18T02:53:50;14.60;;;7.27;;
76290;SDS011;65100;46.884;17.410;2023-03-18T02:56:19;15.52;;;6.95;;
76290;SDS011;65100;46.884;17.410;2023-03-18T02:58:44;13.50;;;7.30;;
76290;SDS011;65100;46.884;17.410;2023-03-18T03:01:10;14.32;;;6.68;;
76290;SDS011;65100;46.884;17.410;2023-03-18T03:03:36;15.55;;;7.15;;
76290;SDS011;65100;46.884;17.410;2023-03-18T03:06:03;15.65;;;7.07;;
76290;SDS011;65100;46.884;17.410;2023-03-18T03:08:29;18.97;;;7.40;;
76290;SDS011;65100;46.884;17.410;2023-03-18T03:10:55;15.25;;;7.28;;
76290;SDS011;65100;46.884;17.410;2023-03-18T03:13:21;13.70;;;6.87;;
76290;SDS011;65100;46.884;17.410;2023-03-18T03:15:48;14.18;;;6.78;;
76290;SDS011;65100;46.884;17.410;2023-03-18T03:18:15;15.38;;;6.90;;
76290;SDS011;65100;46.884;17.410;2023-03-18T03:20:41;14.30;;;6.40;;
76290;SDS011;65100;46.884;17.410;2023-03-18T03:23:08;13.57;;;7.15;;
76290;SDS011;65100;46.884;17.410;2023-03-18T03:25:37;14.83;;;6.40;;
76290;SDS011;65100;46.884;17.410;2023-03-18T03:28:04;13.35;;;6.93;;
76290;SDS011;65100;46.884;17.410;2023-03-18T03:30:31;13.90;;;6.70;;
76290;SDS011;65100;46.884;17.410;2023-03-18T03:32:57;13.48;;;6.22;;
76290;SDS011;65100;46.884;17.410;2023-03-18T03:35:24;15.88;;;7.97;;
76290;SDS011;65100;46.884;17.410;2023-03-18T03:37:50;13.90;;;6.90;;
76290;SDS011;65100;46.884;17.410;2023-03-18T03:40:16;17.17;;;7.88;;
76290;SDS011;65100;46.884;17.410;2023-03-18T03:42:43;14.82;;;6.80;;
76290;SDS011;65100;46.884;17.410;2023-03-18T03:45:09;16.20;;;7.47;;
76290;SDS011;65100;46.884;17.410;2023-03-18T03:47:36;14.15;;;6.90;;
76290;SDS011;65100;46.884;17.410;2023-03-18T03:50:02;15.67;;;6.53;;
76290;SDS011;65100;46.884;17.410;2023-03-18T03:52:29;13.73;;;6.30;;
76290;SDS011;65100;46.884;17.410;2023-03-18T03:54:56;13.73;;;6.20;;
76290;SDS011;65100;46.884;17.410;2023-03-18T03:57:22;14.60;;;6.95;;
76290;SDS011;65100;46.884;17.410;2023-03-18T03:59:51;13.93;;;6.43;;
76290;SDS011;65100;46.884;17.410;2023-03-18T04:02:17;13.32;;;5.85;;
76290;SDS011;65100;46.884;17.410;2023-03-18T04:04:43;14.05;;;6.28;;
76290;SDS011;65100;46.884;17.410;2023-03-18T04:07:09;15.20;;;6.88;;
76290;SDS011;65100;46.884;17.410;2023-03-18T04:09:36;13.68;;;6.85;;
76290;SDS011;65100;46.884;17.410;2023-03-18T04:12:01;14.27;;;7.40;;
76290;SDS011;65100;46.884;17.410;2023-03-18T04:14:28;13.95;;;6.38;;
76290;SDS011;65100;46.884;17.410;2023-03-18T04:16:53;14.50;;;6.45;;
76290;SDS011;65100;46.884;17.410;2023-03-18T04:19:22;16.00;;;7.43;;
76290;SDS011;65100;46.884;17.410;2023-03-18T04:21:48;17.80;;;6.90;;
76290;SDS011;65100;46.884;17.410;2023-03-18T04:24:13;16.08;;;7.22;;
76290;SDS011;65100;46.884;17.410;2023-03-18T04:26:39;13.93;;;6.73;;
76290;SDS011;65100;46.884;17.410;2023-03-18T04:29:05;15.37;;;6.80;;
76290;SDS011;65100;46.884;17.410;2023-03-18T04:31:30;14.10;;;7.00;;
76290;SDS011;65100;46.884;17.410;2023-03-18T04:33:56;13.93;;;6.90;;
76290;SDS011;65100;46.884;17.410;2023-03-18T04:36:23;14.70;;;6.30;;
76290;SDS011;65100;46.884;17.410;2023-03-18T04:38:49;13.83;;;6.30;;
76290;SDS011;65100;46.884;17.410;2023-03-18T04:41:15;15.23;;;6.68;;
76290;SDS011;65100;46.884;17.410;2023-03-18T04:43:41;16.00;;;6.90;;
76290;SDS011;65100;46.884;17.410;2023-03-18T04:46:08;13.83;;;6.80;;
76290;SDS011;65100;46.884;17.410;2023-03-18T04:48:36;16.67;;;7.10;;
76290;SDS011;65100;46.884;17.410;2023-03-18T04:51:02;14.45;;;6.75;;
76290;SDS011;65100;46.884;17.410;2023-03-18T04:53:28;14.30;;;6.95;;
76290;SDS011;65100;46.884;17.410;2023-03-18T04:55:53;13.03;;;6.70;;
76290;SDS011;65100;46.884;17.410;2023-03-18T04:58:19;14.85;;;6.57;;
76290;SDS011;65100;46.884;17.410;2023-03-18T05:00:45;14.83;;;6.47;;
76290;SDS011;65100;46.884;17.410;2023-03-18T05:03:11;14.82;;;7.03;;
76290;SDS011;65100;46.884;17.410;2023-03-18T05:05:36;15.47;;;6.93;;
76290;SDS011;65100;46.884;17.410;2023-03-18T05:08:02;14.40;;;7.57;;
76290;SDS011;65100;46.884;17.410;2023-03-18T05:10:27;15.47;;;6.67;;
76290;SDS011;65100;46.884;17.410;2023-03-18T05:12:53;15.20;;;7.95;;
76290;SDS011;65100;46.884;17.410;2023-03-18T05:15:19;14.18;;;6.88;;
76290;SDS011;65100;46.884;17.410;2023-03-18T05:17:45;14.43;;;6.90;;
76290;SDS011;65100;46.884;17.410;2023-03-18T05:20:11;15.80;;;6.78;;
76290;SDS011;65100;46.884;17.410;2023-03-18T05:22:38;14.68;;;6.28;;
76290;SDS011;65100;46.884;17.410;2023-03-18T05:25:04;16.43;;;6.67;;
76290;SDS011;65100;46.884;17.410;2023-03-18T05:27:31;23.58;;;9.80;;
76290;SDS011;65100;46.884;17.410;2023-03-18T05:29:56;20.07;;;9.00;;
76290;SDS011;65100;46.884;17.410;2023-03-18T05:32:22;21.63;;;10.07;;
76290;SDS011;65100;46.884;17.410;2023-03-18T05:34:48;17.42;;;7.60;;
76290;SDS011;65100;46.884;17.410;2023-03-18T05:37:14;15.63;;;7.93;;
76290;SDS011;65100;46.884;17.410;2023-03-18T05:39:40;18.73;;;7.30;;
76290;SDS011;65100;46.884;17.410;2023-03-18T05:42:06;16.60;;;7.70;;
76290;SDS011;65100;46.884;17.410;2023-03-18T05:44:32;16.67;;;7.72;;
76290;SDS011;65100;46.884;17.410;2023-03-18T05:46:59;14.77;;;8.00;;
76290;SDS011;65100;46.884;17.410;2023-03-18T05:49:24;15.83;;;7.70;;
76290;SDS011;65100;46.884;17.410;2023-03-18T05:51:51;14.43;;;6.90;;
76290;SDS011;65100;46.884;17.410;2023-03-18T05:54:17;15.43;;;7.13;;
76290;SDS011;65100;46.884;17.410;2023-03-18T05:56:43;16.53;;;7.77;;
76290;SDS011;65100;46.884;17.410;2023-03-18T05:59:12;14.85;;;7.03;;
76290;SDS011;65100;46.884;17.410;2023-03-18T06:01:38;16.40;;;8.15;;
76290;SDS011;65100;46.884;17.410;2023-03-18T06:04:05;19.10;;;8.48;;
76290;SDS011;65100;46.884;17.410;2023-03-18T06:06:32;16.70;;;7.90;;
76290;SDS011;65100;46.884;17.410;2023-03-18T06:09:01;22.23;;;9.13;;
76290;SDS011;65100;46.884;17.410;2023-03-18T06:11:27;18.48;;;8.45;;
76290;SDS011;65100;46.884;17.410;2023-03-18T06:13:53;17.15;;;8.68;;
76290;SDS011;65100;46.884;17.410;2023-03-18T06:16:19;14.93;;;7.33;;
76290;SDS011;65100;46.884;17.410;2023-03-18T06:18:44;17.13;;;8.70;;
76290;SDS011;65100;46.884;17.410;2023-03-18T06:21:10;14.37;;;6.80;;
76290;SDS011;65100;46.884;17.410;2023-03-18T06:23:35;16.80;;;8.10;;
76290;SDS011;65100;46.884;17.410;2023-03-18T06:26:02;20.97;;;10.00;;
76290;SDS011;65100;46.884;17.410;2023-03-18T06:28:28;13.20;;;6.20;;
76290;SDS011;65100;46.884;17.410;2023-03-18T06:30:57;18.23;;;8.60;;
76290;SDS011;65100;46.884;17.410;2023-03-18T06:33:23;14.05;;;7.88;;
76290;SDS011;65100;46.884;17.410;2023-03-18T06:35:50;15.18;;;8.00;;
76290;SDS011;65100;46.884;17.410;2023-03-18T06:38:16;15.83;;;7.70;;
76290;SDS011;65100;46.884;17.410;2023-03-18T06:40:42;14.10;;;8.00;;
76290;SDS011;65100;46.884;17.410;2023-03-18T06:43:09;15.15;;;7.35;;
76290;SDS011;65100;46.884;17.410;2023-03-18T06:45:35;14.25;;;6.50;;
76290;SDS011;65100;46.884;17.410;2023-03-18T06:48:01;13.87;;;6.80;;
76290;SDS011;65100;46.884;17.410;2023-03-18T06:50:27;13.60;;;7.03;;
76290;SDS011;65100;46.884;17.410;2023-03-18T06:52:54;14.70;;;7.45;;
76290;SDS011;65100;46.884;17.410;2023-03-18T06:55:19;15.37;;;6.80;;
76290;SDS011;65100;46.884;17.410;2023-03-18T06:57:48;13.98;;;7.18;;
76290;SDS011;65100;46.884;17.410;2023-03-18T07:00:14;15.25;;;7.32;;
76290;SDS011;65100;46.884;17.410;2023-03-18T07:02:40;15.30;;;7.35;;
76290;SDS011;65100;46.884;17.410;2023-03-18T07:05:07;14.27;;;6.87;;
76290;SDS011;65100;46.884;17.410;2023-03-18T07:07:33;14.13;;;6.53;;
76290;SDS011;65100;46.884;17.410;2023-03-18T07:10:02;15.52;;;7.35;;
76290;SDS011;65100;46.884;17.410;2023-03-18T07:12:40;17.55;;;7.68;;
76290;SDS011;65100;46.884;17.410;2023-03-18T07:15:05;14.77;;;6.90;;
76290;SDS011;65100;46.884;17.410;2023-03-18T07:17:31;16.55;;;7.35;;
76290;SDS011;65100;46.884;17.410;2023-03-18T07:19:57;14.00;;;7.87;;
76290;SDS011;65100;46.884;17.410;2023-03-18T07:22:22;13.63;;;7.28;;
76290;SDS011;65100;46.884;17.410;2023-03-18T07:24:48;17.90;;;7.97;;
76290;SDS011;65100;46.884;17.410;2023-03-18T07:27:15;14.95;;;6.20;;
76290;SDS011;65100;46.884;17.410;2023-03-18T07:29:40;16.67;;;7.20;;
76290;SDS011;65100;46.884;17.410;2023-03-18T07:32:06;10.63;;;5.30;;
76290;SDS011;65100;46.884;17.410;2023-03-18T07:34:32;13.55;;;6.88;;
76290;SDS011;65100;46.884;17.410;2023-03-18T07:36:57;14.67;;;6.90;;
76290;SDS011;65100;46.884;17.410;2023-03-18T07:39:23;13.73;;;7.20;;
76290;SDS011;65100;46.884;17.410;2023-03-18T07:41:49;15.20;;;6.82;;
76290;SDS011;65100;46.884;17.410;2023-03-18T07:44:15;13.93;;;7.00;;
76290;SDS011;65100;46.884;17.410;2023-03-18T07:46:41;13.15;;;6.60;;
76290;SDS011;65100;46.884;17.410;2023-03-18T07:49:06;13.67;;;6.33;;
76290;SDS011;65100;46.884;17.410;2023-03-18T07:51:32;16.40;;;7.27;;
76290;SDS011;65100;46.884;17.410;2023-03-18T07:53:57;14.77;;;6.72;;
76290;SDS011;65100;46.884;17.410;2023-03-18T07:56:23;13.30;;;6.80;;
76290;SDS011;65100;46.884;17.410;2023-03-18T07:58:49;11.75;;;6.30;;
76290;SDS011;65100;46.884;17.410;2023-03-18T08:01:15;12.50;;;6.13;;
76290;SDS011;65100;46.884;17.410;2023-03-18T08:03:43;15.40;;;7.40;;
76290;SDS011;65100;46.884;17.410;2023-03-18T08:06:10;17.80;;;7.65;;
76290;SDS011;65100;46.884;17.410;2023-03-18T08:08:36;14.65;;;6.72;;
76290;SDS011;65100;46.884;17.410;2023-03-18T08:11:02;12.88;;;6.63;;
76290;SDS011;65100;46.884;17.410;2023-03-18T08:13:28;16.80;;;7.70;;
76290;SDS011;65100;46.884;17.410;2023-03-18T08:15:54;14.67;;;6.80;;
76290;SDS011;65100;46.884;17.410;2023-03-18T08:18:20;15.73;;;7.82;;
76290;SDS011;65100;46.884;17.410;2023-03-18T08:20:46;15.07;;;7.53;;
76290;SDS011;65100;46.884;17.410;2023-03-18T08:23:12;15.80;;;7.63;;
76290;SDS011;65100;46.884;17.410;2023-03-18T08:25:39;12.38;;;5.88;;
76290;SDS011;65100;46.884;17.410;2023-03-18T08:28:05;14.07;;;6.00;;
76290;SDS011;65100;46.884;17.410;2023-03-18T08:30:32;18.55;;;8.32;;
76290;SDS011;65100;46.884;17.410;2023-03-18T08:32:58;13.07;;;6.32;;
76290;SDS011;65100;46.884;17.410;2023-03-18T08:35:24;12.73;;;6.07;;
76290;SDS011;65100;46.884;17.410;2023-03-18T08:37:50;14.18;;;6.82;;
76290;SDS011;65100;46.884;17.410;2023-03-18T08:40:16;13.50;;;7.10;;
76290;SDS011;65100;46.884;17.410;2023-03-18T08:42:42;14.45;;;6.95;;
76290;SDS011;65100;46.884;17.410;2023-03-18T08:45:09;15.10;;;7.18;;
76290;SDS011;65100;46.884;17.410;2023-03-18T08:47:35;11.63;;;5.93;;
76290;SDS011;65100;46.884;17.410;2023-03-18T08:50:00;20.40;;;8.23;;
76290;SDS011;65100;46.884;17.410;2023-03-18T08:52:26;14.27;;;7.10;;
76290;SDS011;65100;46.884;17.410;2023-03-18T08:54:51;12.83;;;6.43;;
76290;SDS011;65100;46.884;17.410;2023-03-18T08:57:16;14.60;;;6.97;;
76290;SDS011;65100;46.884;17.410;2023-03-18T08:59:42;13.10;;;6.15;;
76290;SDS011;65100;46.884;17.410;2023-03-18T09:02:11;15.40;;;7.67;;
76290;SDS011;65100;46.884;17.410;2023-03-18T09:04:40;13.77;;;6.57;;
76290;SDS011;65100;46.884;17.410;2023-03-18T09:07:06;14.40;;;6.82;;
76290;SDS011;65100;46.884;17.410;2023-03-18T09:09:32;13.47;;;6.63;;
76290;SDS011;65100;46.884;17.410;2023-03-18T09:11:57;13.67;;;6.63;;
76290;SDS011;65100;46.884;17.410;2023-03-18T09:14:23;13.10;;;6.50;;
76290;SDS011;65100;46.884;17.410;2023-03-18T09:16:48;13.07;;;7.17;;
76290;SDS011;65100;46.884;17.410;2023-03-18T09:19:13;12.73;;;6.40;;
76290;SDS011;65100;46.884;17.410;2023-03-18T09:21:39;12.90;;;6.43;;
76290;SDS011;65100;46.884;17.410;2023-03-18T09:24:04;13.93;;;6.97;;
76290;SDS011;65100;46.884;17.410;2023-03-18T09:26:30;12.67;;;6.23;;
76290;SDS011;65100;46.884;17.410;2023-03-18T09:28:55;12.03;;;6.17;;
76290;SDS011;65100;46.884;17.410;2023-03-18T09:31:21;13.98;;;6.93;;
76290;SDS011;65100;46.884;17.410;2023-03-18T09:33:46;13.03;;;6.57;;
76290;SDS011;65100;46.884;17.410;2023-03-18T09:36:12;12.63;;;7.10;;
76290;SDS011;65100;46.884;17.410;2023-03-18T09:38:38;14.48;;;6.95;;
76290;SDS011;65100;46.884;17.410;2023-03-18T09:54:37;13.25;;;6.63;;
76290;SDS011;65100;46.884;17.410;2023-03-18T09:57:21;10.30;;;5.22;;
76290;SDS011;65100;46.884;17.410;2023-03-18T09:59:51;14.33;;;6.60;;
76290;SDS011;65100;46.884;17.410;2023-03-18T10:02:22;12.50;;;5.25;;
76290;SDS011;65100;46.884;17.410;2023-03-18T10:04:57;13.98;;;6.80;;
76290;SDS011;65100;46.884;17.410;2023-03-18T10:07:35;14.25;;;6.05;;
76290;SDS011;65100;46.884;17.410;2023-03-18T10:10:05;13.32;;;6.40;;
76290;SDS011;65100;46.884;17.410;2023-03-18T10:12:58;13.10;;;6.67;;
76290;SDS011;65100;46.884;17.410;2023-03-18T10:15:39;12.43;;;6.18;;
76290;SDS011;65100;46.884;17.410;2023-03-18T10:18:11;13.10;;;6.53;;
76290;SDS011;65100;46.884;17.410;2023-03-18T10:20:50;13.25;;;6.70;;
76290;SDS011;65100;46.884;17.410;2023-03-18T10:25:57;11.60;;;5.73;;
76290;SDS011;65100;46.884;17.410;2023-03-18T10:31:09;12.93;;;6.60;;
76290;SDS011;65100;46.884;17.410;2023-03-18T10:34:00;15.02;;;6.25;;
76290;SDS011;65100;46.884;17.410;2023-03-18T10:36:49;14.32;;;6.40;;
76290;SDS011;65100;46.884;17.410;2023-03-18T10:39:24;12.70;;;6.43;;
76290;SDS011;65100;46.884;17.410;2023-03-18T10:41:52;12.18;;;5.68;;
76290;SDS011;65100;46.884;17.410;2023-03-18T10:44:37;14.48;;;6.30;;
76290;SDS011;65100;46.884;17.410;2023-03-18T10:47:13;13.48;;;6.50;;
76290;SDS011;65100;46.884;17.410;2023-03-18T10:49:46;13.40;;;5.93;;
76290;SDS011;65100;46.884;17.410;2023-03-18T10:52:32;10.53;;;5.43;;
76290;SDS011;65100;46.884;17.410;2023-03-18T10:55:02;12.63;;;5.50;;
76290;SDS011;65100;46.884;17.410;2023-03-18T10:57:28;13.98;;;6.03;;
76290;SDS011;65100;46.884;17.410;2023-03-18T10:59:54;12.73;;;6.20;;
76290;SDS011;65100;46.884;17.410;2023-03-18T11:02:28;12.60;;;6.03;;
76290;SDS011;65100;46.884;17.410;2023-03-18T11:07:54;11.65;;;5.50;;
76290;SDS011;65100;46.884;17.410;2023-03-18T11:10:25;13.80;;;6.10;;
76290;SDS011;65100;46.884;17.410;2023-03-18T11:12:57;12.05;;;5.82;;
76290;SDS011;65100;46.884;17.410;2023-03-18T11:15:35;12.10;;;6.00;;
76290;SDS011;65100;46.884;17.410;2023-03-18T11:18:02;13.70;;;6.82;;
76290;SDS011;65100;46.884;17.410;2023-03-18T11:20:33;14.17;;;6.60;;
76290;SDS011;65100;46.884;17.410;2023-03-18T11:23:29;13.25;;;6.82;;
76290;SDS011;65100;46.884;17.410;2023-03-18T11:26:21;14.07;;;6.80;;
76290;SDS011;65100;46.884;17.410;2023-03-18T11:28:47;12.02;;;5.80;;
76290;SDS011;65100;46.884;17.410;2023-03-18T11:34:32;12.40;;;6.43;;
76290;SDS011;65100;46.884;17.410;2023-03-18T11:39:29;13.50;;;6.47;;
76290;SDS011;65100;46.884;17.410;2023-03-18T11:41:58;14.47;;;6.70;;
76290;SDS011;65100;46.884;17.410;2023-03-18T11:44:28;14.23;;;6.88;;
76290;SDS011;65100;46.884;17.410;2023-03-18T11:47:07;14.00;;;6.63;;
76290;SDS011;65100;46.884;17.410;2023-03-18T11:49:37;14.10;;;6.55;;
76290;SDS011;65100;46.884;17.410;2023-03-18T12:25:19;14.00;;;6.90;;
76290;SDS011;65100;46.884;17.410;2023-03-18T12:27:59;14.10;;;7.47;;
76290;SDS011;65100;46.884;17.410;2023-03-18T12:36:39;14.45;;;6.95;;
76290;SDS011;65100;46.884;17.410;2023-03-18T12:41:59;12.95;;;6.63;;
76290;SDS011;65100;46.884;17.410;2023-03-18T12:44:46;19.23;;;8.95;;
76290;SDS011;65100;46.884;17.410;2023-03-18T12:47:53;19.15;;;9.48;;
76290;SDS011;65100;46.884;17.410;2023-03-18T12:53:13;13.53;;;7.03;;
76290;SDS011;65100;46.884;17.410;2023-03-18T12:55:53;14.35;;;7.28;;
76290;SDS011;65100;46.884;17.410;2023-03-18T12:58:22;15.80;;;7.70;;
76290;SDS011;65100;46.884;17.410;2023-03-18T13:00:52;13.98;;;6.50;;
76290;SDS011;65100;46.884;17.410;2023-03-18T13:03:46;13.75;;;6.47;;
76290;SDS011;65100;46.884;17.410;2023-03-18T13:06:24;14.53;;;7.40;;
76290;SDS011;65100;46.884;17.410;2023-03-18T13:09:10;14.18;;;6.82;;
76290;SDS011;65100;46.884;17.410;2023-03-18T13:12:00;12.73;;;5.88;;
76290;SDS011;65100;46.884;17.410;2023-03-18T13:16:57;14.85;;;7.10;;
76290;SDS011;65100;46.884;17.410;2023-03-18T13:19:24;13.93;;;7.13;;
76290;SDS011;65100;46.884;17.410;2023-03-18T13:21:52;13.15;;;6.80;;
76290;SDS011;65100;46.884;17.410;2023-03-18T13:24:35;13.27;;;6.83;;
76290;SDS011;65100;46.884;17.410;2023-03-18T13:41:47;12.68;;;6.50;;
76290;SDS011;65100;46.884;17.410;2023-03-18T13:44:00;12.30;;;6.57;;
76290;SDS011;65100;46.884;17.410;2023-03-18T13:46:33;12.05;;;6.85;;
76290;SDS011;65100;46.884;17.410;2023-03-18T13:49:00;14.43;;;7.63;;
76290;SDS011;65100;46.884;17.410;2023-03-18T13:53:55;12.70;;;6.63;;
76290;SDS011;65100;46.884;17.410;2023-03-18T13:59:04;14.10;;;6.68;;
76290;SDS011;65100;46.884;17.410;2023-03-18T14:01:48;14.93;;;6.95;;
76290;SDS011;65100;46.884;17.410;2023-03-18T14:06:54;13.23;;;6.65;;
76290;SDS011;65100;46.884;17.410;2023-03-18T14:09:35;13.00;;;6.88;;
76290;SDS011;65100;46.884;17.410;2023-03-18T14:12:20;20.03;;;11.37;;
76290;SDS011;65100;46.884;17.410;2023-03-18T14:18:00;17.90;;;9.07;;
76290;SDS011;65100;46.884;17.410;2023-03-18T14:20:04;16.80;;;7.90;;
76290;SDS011;65100;46.884;17.410;2023-03-18T14:22:42;16.17;;;7.28;;
76290;SDS011;65100;46.884;17.410;2023-03-18T14:27:44;14.00;;;8.07;;
76290;SDS011;65100;46.884;17.410;2023-03-18T14:32:56;22.75;;;12.10;;
76290;SDS011;65100;46.884;17.410;2023-03-18T14:35:33;14.23;;;7.80;;
76290;SDS011;65100;46.884;17.410;2023-03-18T14:38:21;13.43;;;7.50;;
76290;SDS011;65100;46.884;17.410;2023-03-18T14:40:53;15.05;;;7.40;;
76290;SDS011;65100;46.884;17.410;2023-03-18T14:43:27;14.35;;;7.80;;
76290;SDS011;65100;46.884;17.410;2023-03-18T14:46:01;14.25;;;7.43;;
76290;SDS011;65100;46.884;17.410;2023-03-18T14:48:33;14.15;;;7.38;;
76290;SDS011;65100;46.884;17.410;2023-03-18T14:51:03;15.47;;;8.10;;
76290;SDS011;65100;46.884;17.410;2023-03-18T14:56:02;15.68;;;7.63;;
76290;SDS011;65100;46.884;17.410;2023-03-18T14:58:28;15.55;;;7.90;;
76290;SDS011;65100;46.884;17.410;2023-03-18T15:01:02;12.90;;;6.97;;
76290;SDS011;65100;46.884;17.410;2023-03-18T15:03:31;18.85;;;11.18;;
76290;SDS011;65100;46.884;17.410;2023-03-18T15:05:58;20.50;;;11.98;;
76290;SDS011;65100;46.884;17.410;2023-03-18T15:08:33;15.25;;;8.07;;
76290;SDS011;65100;46.884;17.410;2023-03-18T15:11:01;14.07;;;7.60;;
76290;SDS011;65100;46.884;17.410;2023-03-18T15:13:33;14.63;;;7.80;;
76290;SDS011;65100;46.884;17.410;2023-03-18T15:16:02;16.05;;;8.50;;
76290;SDS011;65100;46.884;17.410;2023-03-18T15:18:32;15.25;;;8.30;;
76290;SDS011;65100;46.884;17.410;2023-03-18T15:23:30;19.42;;;11.18;;
76290;SDS011;65100;46.884;17.410;2023-03-18T15:25:59;13.83;;;7.47;;
76290;SDS011;65100;46.884;17.410;2023-03-18T15:28:26;13.10;;;7.20;;
76290;SDS011;65100;46.884;17.410;2023-03-18T15:30:54;13.10;;;7.30;;
76290;SDS011;65100;46.884;17.410;2023-03-18T15:33:35;11.40;;;7.00;;
76290;SDS011;65100;46.884;17.410;2023-03-18T15:36:06;13.43;;;7.28;;
76290;SDS011;65100;46.884;17.410;2023-03-18T15:38:44;12.27;;;6.10;;
76290;SDS011;65100;46.884;17.410;2023-03-18T15:41:12;28.98;;;15.82;;
76290;SDS011;65100;46.884;17.410;2023-03-18T15:49:02;14.65;;;7.45;;
76290;SDS011;65100;46.884;17.410;2023-03-18T15:51:32;13.17;;;7.20;;
76290;SDS011;65100;46.884;17.410;2023-03-18T15:54:24;12.00;;;6.72;;
76290;SDS011;65100;46.884;17.410;2023-03-18T15:56:52;15.15;;;7.68;;
76290;SDS011;65100;46.884;17.410;2023-03-18T15:59:27;12.27;;;6.70;;
76290;SDS011;65100;46.884;17.410;2023-03-18T16:01:57;13.13;;;7.00;;
76290;SDS011;65100;46.884;17.410;2023-03-18T16:04:24;14.07;;;6.37;;
76290;SDS011;65100;46.884;17.410;2023-03-18T16:06:53;12.48;;;7.07;;
76290;SDS011;65100;46.884;17.410;2023-03-18T16:09:23;12.87;;;6.83;;
76290;SDS011;65100;46.884;17.410;2023-03-18T16:12:12;11.87;;;6.80;;
76290;SDS011;65100;46.884;17.410;2023-03-18T16:14:41;12.82;;;7.13;;
76290;SDS011;65100;46.884;17.410;2023-03-18T16:17:12;13.38;;;7.60;;
76290;SDS011;65100;46.884;17.410;2023-03-18T16:19:39;14.77;;;9.20;;
76290;SDS011;65100;46.884;17.410;2023-03-18T16:22:05;16.27;;;10.30;;
76290;SDS011;65100;46.884;17.410;2023-03-18T16:24:31;15.48;;;8.50;;
76290;SDS011;65100;46.884;17.410;2023-03-18T16:26:56;14.70;;;8.23;;
76290;SDS011;65100;46.884;17.410;2023-03-18T16:29:26;23.33;;;12.93;;
76290;SDS011;65100;46.884;17.410;2023-03-18T16:31:55;74.32;;;36.88;;
76290;SDS011;65100;46.884;17.410;2023-03-18T16:34:21;60.72;;;33.38;;
76290;SDS011;65100;46.884;17.410;2023-03-18T16:36:47;27.93;;;15.70;;
76290;SDS011;65100;46.884;17.410;2023-03-18T16:39:18;35.83;;;20.30;;